Weather History for Indianapolis Mount Comfort, IN

Change the Weather History Date:

Wednesday, April 16, 2014

  Actual Average (KEYE) Record (KEYE)
Temperature  
Mean Temperature 38 °F 53 °F  
Max Temperature 50 °F 63 °F 82 °F (2002)
Min Temperature 26 °F 44 °F 28 °F (2014)
Degree Days  
Heating Degree Days 27 12  
Month to date heating degree days 231  
Since 1 July heating degree days 5056  
Cooling Degree Days 0 1  
Month to date cooling degree days 6  
Year to date cooling degree days 7  
Moisture  
Dew Point 23 °F    
Average Humidity 58    
Maximum Humidity 86    
Minimum Humidity 35    
Precipitation  
Precipitation 0.00 in 0.11 in 0.64 in (1993)
Month to date precipitation 1.85  
Year to date precipitation 9.49  
Sea Level Pressure  
Sea Level Pressure 30.30 in    
Wind  
Wind Speed 7 mph (SE)    
Max Wind Speed 15 mph    
Max Gust Speed 23 mph    
Visibility 10 miles    
Events      
T = Trace of Precipitation, MM = Missing Value Source: NWS Daily Summary

Daily Weather History Graph

Daily Weather History Graph

Search for Another Location

Airport:

Trip Planner

Search our weather history database for the weather conditions in past years. The results will help you decide how hot, cold, wet, or windy it might be!

Date:

Astronomy

Apr. 16, 2014 Rise Set
Actual Time 7:04 AM EDT 8:22 PM EDT
Civil Twilight 6:36 AM EDT 8:51 PM EDT
Nautical Twilight 6:02 AM EDT 9:24 PM EDT
Astronomical Twilight 5:27 AM EDT 10:00 PM EDT
Moon 10:05 PM EDT (4/16) 7:51 AM EDT (4/16)
Length of Visible Light 14h 14m
Length of Day
13h 18m
Full, 98% of the Moon is Illuminated
Apr 16
Full
Apr 22
Last Quarter
Apr 29
New
May 6
First Quarter
May 14
Full

Hourly Weather History & Observations

Time (EDT) Temp. Windchill Dew Point Humidity Pressure Visibility Wind Dir Wind Speed Gust Speed Precip Events Conditions
12:15 AM 28.4 °F 24.6 °F 23.0 °F 80% 30.24 in 10.0 mi East 3.5 mph - N/A   Clear
12:34 AM 28.4 °F 24.6 °F 23.0 °F 80% 30.24 in 10.0 mi East 3.5 mph - N/A   Clear
12:55 AM 28.4 °F 23.3 °F 23.0 °F 80% 30.24 in 10.0 mi ESE 4.6 mph - N/A   Clear
1:15 AM 28.4 °F 23.3 °F 21.2 °F 74% 30.25 in 10.0 mi ESE 4.6 mph - N/A   Clear
1:35 AM 28.4 °F - 23.0 °F 80% 30.26 in 10.0 mi Calm Calm - N/A   Clear
1:55 AM 26.6 °F 22.6 °F 23.0 °F 86% 30.26 in 10.0 mi SE 3.5 mph - N/A   Clear
2:14 AM 28.4 °F 24.6 °F 21.2 °F 74% 30.27 in 10.0 mi SE 3.5 mph - N/A   Clear
2:35 AM 28.4 °F 23.3 °F 21.2 °F 74% 30.27 in 10.0 mi SE 4.6 mph - N/A   Clear
2:55 AM 28.4 °F 23.3 °F 19.4 °F 69% 30.28 in 10.0 mi SE 4.6 mph - N/A   Clear
3:14 AM 28.4 °F 23.3 °F 21.2 °F 74% 30.29 in 10.0 mi SE 4.6 mph - N/A   Clear
3:35 AM 28.4 °F 23.3 °F 19.4 °F 69% 30.29 in 10.0 mi SSE 4.6 mph - N/A   Clear
3:54 AM 28.4 °F 23.3 °F 19.4 °F 69% 30.30 in 10.0 mi SSE 4.6 mph - N/A   Clear
4:15 AM 26.6 °F 21.2 °F 19.4 °F 74% 30.31 in 10.0 mi SE 4.6 mph - N/A   Clear
4:35 AM 26.6 °F 20.0 °F 19.4 °F 74% 30.32 in 10.0 mi SSE 5.8 mph - N/A   Clear
4:54 AM 26.6 °F 21.2 °F 19.4 °F 74% 30.32 in 10.0 mi SSE 4.6 mph - N/A   Clear
5:15 AM 26.6 °F 22.6 °F 19.4 °F 74% 30.32 in 10.0 mi SSE 3.5 mph - N/A   Clear
5:34 AM 26.6 °F 21.2 °F 19.4 °F 74% 30.33 in 10.0 mi SSE 4.6 mph - N/A   Clear
5:55 AM 26.6 °F 21.2 °F 19.4 °F 74% 30.33 in 10.0 mi SE 4.6 mph - N/A   Clear
6:15 AM 26.6 °F 21.2 °F 21.2 °F 80% 30.34 in 10.0 mi SSE 4.6 mph - N/A   Clear
6:34 AM 26.6 °F 20.0 °F 21.2 °F 80% 30.34 in 10.0 mi SE 5.8 mph - N/A   Clear
6:55 AM 26.6 °F 19.1 °F 19.4 °F 74% 30.34 in 10.0 mi SE 6.9 mph - N/A   Clear
7:15 AM 28.4 °F 21.2 °F 19.4 °F 69% 30.35 in 10.0 mi SE 6.9 mph - N/A   Clear
7:35 AM 28.4 °F 21.2 °F 21.2 °F 74% 30.36 in 10.0 mi SE 6.9 mph - N/A   Clear
7:55 AM 28.4 °F 22.2 °F 21.2 °F 74% 30.36 in 10.0 mi SSE 5.8 mph - N/A   Clear
8:14 AM 30.2 °F 24.3 °F 21.2 °F 69% 30.37 in 10.0 mi SSE 5.8 mph - N/A   Clear
8:35 AM 32.0 °F 26.4 °F 21.2 °F 64% 30.38 in 10.0 mi SSE 5.8 mph - N/A   Clear
8:55 AM 32.0 °F 23.6 °F 21.2 °F 64% 30.39 in 10.0 mi SE 10.4 mph - N/A   Clear
9:15 AM 33.8 °F 26.4 °F 21.2 °F 60% 30.38 in 10.0 mi SE 9.2 mph - N/A   Clear
9:55 AM 35.6 °F 28.0 °F 23.0 °F 60% 30.39 in 10.0 mi SE 10.4 mph - N/A   Clear
10:15 AM 37.4 °F 30.3 °F 21.2 °F 52% 30.38 in 10.0 mi SE 10.4 mph - N/A   Clear
10:34 AM 37.4 °F 30.3 °F 21.2 °F 52% 30.38 in 10.0 mi SE 10.4 mph - N/A   Clear
10:55 AM 39.2 °F 32.0 °F 23.0 °F 52% 30.39 in 10.0 mi SE 11.5 mph - N/A   Clear
11:14 AM 41.0 °F 33.9 °F 23.0 °F 49% 30.39 in 10.0 mi SE 12.7 mph - N/A   Clear
11:55 AM 41.0 °F 33.9 °F 21.2 °F 45% 30.38 in 10.0 mi SSE 12.7 mph - N/A   Clear
12:14 PM 42.8 °F 37.0 °F 23.0 °F 46% 30.39 in 10.0 mi SSE 10.4 mph 18.4 mph N/A   Clear
12:35 PM 42.8 °F 36.2 °F 23.0 °F 46% 30.37 in 10.0 mi SE 12.7 mph 18.4 mph N/A   Clear
12:54 PM 42.8 °F 35.4 °F 23.0 °F 46% 30.37 in 10.0 mi SE 15.0 mph - N/A   Clear
1:15 PM 44.6 °F 38.1 °F 23.0 °F 43% 30.36 in 10.0 mi SSE 13.8 mph 21.9 mph N/A   Clear
1:35 PM 44.6 °F 38.8 °F 23.0 °F 43% 30.35 in 10.0 mi SE 11.5 mph - N/A   Clear
1:55 PM 46.4 °F 41.1 °F 23.0 °F 40% 30.34 in 10.0 mi SSE 11.5 mph 18.4 mph N/A   Clear
2:15 PM 46.4 °F 40.7 °F 23.0 °F 40% 30.34 in 10.0 mi SE 12.7 mph - N/A   Clear
2:34 PM 46.4 °F 40.1 °F 23.0 °F 40% 30.34 in 10.0 mi SE 15.0 mph 18.4 mph N/A   Clear
2:55 PM 46.4 °F 41.1 °F 23.0 °F 40% 30.33 in 10.0 mi SSE 11.5 mph 19.6 mph N/A   Clear
3:14 PM 48.2 °F - 24.8 °F 40% 30.32 in 10.0 mi ESE 15.0 mph - N/A   Clear
3:35 PM 48.2 °F - 23.0 °F 37% 30.31 in 10.0 mi SE 10.4 mph 20.7 mph N/A   Clear
3:55 PM 50.0 °F - 24.8 °F 37% 30.29 in 10.0 mi SSE 12.7 mph 18.4 mph N/A   Clear
4:14 PM 50.0 °F - 24.8 °F 37% 30.28 in 10.0 mi SE 15.0 mph 18.4 mph N/A   Clear
4:35 PM 50.0 °F - 24.8 °F 37% 30.27 in 10.0 mi SE 12.7 mph 18.4 mph N/A   Clear
4:54 PM 50.0 °F - 24.8 °F 37% 30.27 in 10.0 mi SE 15.0 mph 21.9 mph N/A   Clear
5:15 PM 50.0 °F - 24.8 °F 37% 30.26 in 10.0 mi SE 15.0 mph 23.0 mph N/A   Clear
5:55 PM 50.0 °F - 24.8 °F 37% 30.24 in 10.0 mi SE 11.5 mph - N/A   Clear
6:15 PM 50.0 °F - 23.0 °F 35% 30.24 in 10.0 mi SE 13.8 mph 20.7 mph N/A   Clear
6:34 PM 50.0 °F - 23.0 °F 35% 30.23 in 10.0 mi SSE 11.5 mph 19.6 mph N/A   Clear
6:55 PM 48.2 °F - 23.0 °F 37% 30.23 in 10.0 mi ESE 12.7 mph - N/A   Clear
7:15 PM 48.2 °F - 23.0 °F 37% 30.23 in 10.0 mi SE 12.7 mph - N/A   Clear
7:35 PM 48.2 °F - 23.0 °F 37% 30.22 in 10.0 mi SE 9.2 mph 17.3 mph N/A   Clear
7:55 PM 46.4 °F 40.7 °F 23.0 °F 40% 30.22 in 10.0 mi SE 12.7 mph - N/A   Clear
8:14 PM 46.4 °F 42.9 °F 23.0 °F 40% 30.23 in 10.0 mi ESE 6.9 mph 17.3 mph N/A   Clear
8:35 PM 44.6 °F 40.2 °F 24.8 °F 46% 30.23 in 10.0 mi ESE 8.1 mph - N/A   Clear
8:55 PM 42.8 °F 38.6 °F 26.6 °F 53% 30.23 in 10.0 mi ESE 6.9 mph - N/A   Clear
9:15 PM 42.8 °F 38.6 °F 26.6 °F 53% 30.24 in 10.0 mi ESE 6.9 mph - N/A   Clear
9:34 PM 41.0 °F 35.2 °F 28.4 °F 61% 30.24 in 10.0 mi ESE 9.2 mph - N/A   Clear
9:55 PM 41.0 °F 36.4 °F 26.6 °F 57% 30.24 in 10.0 mi ESE 6.9 mph - N/A   Clear
10:15 PM 39.2 °F 34.2 °F 28.4 °F 65% 30.25 in 10.0 mi ESE 6.9 mph - N/A   Clear
10:35 PM 39.2 °F 33.6 °F 28.4 °F 65% 30.25 in 10.0 mi ESE 8.1 mph - N/A   Clear
10:55 PM 39.2 °F 34.2 °F 28.4 °F 65% 30.25 in 10.0 mi ESE 6.9 mph - N/A   Clear
11:14 PM 39.2 °F 35.0 °F 28.4 °F 65% 30.25 in 10.0 mi ESE 5.8 mph - N/A   Clear
11:35 PM 37.4 °F 32.8 °F 28.4 °F 70% 30.25 in 10.0 mi ESE 5.8 mph - N/A   Clear
11:55 PM 39.2 °F 34.2 °F 28.4 °F 65% 30.24 in 10.0 mi ESE 6.9 mph - N/A   Clear